createdAt,value
2023-03-02T02:00:52.510Z,95298.16
2023-03-02T02:03:23.862Z,95292.00
2023-03-02T02:06:12.342Z,95292.44
2023-03-02T02:08:39.706Z,95292.31
2023-03-02T02:11:06.954Z,95298.03
2023-03-02T02:13:34.118Z,95289.41
2023-03-02T02:16:01.072Z,95291.63
2023-03-02T02:18:28.405Z,95289.78
2023-03-02T02:20:56.482Z,95293.16
2023-03-02T06:45:13.695Z,95332.03
2023-03-02T06:47:40.910Z,95322.25
2023-03-02T06:50:08.246Z,95324.59
2023-03-02T06:52:35.618Z,95332.63
2023-03-02T06:55:03.101Z,95334.84
2023-03-02T06:57:34.162Z,95333.56
2023-03-02T07:00:29.327Z,95337.53
2023-03-02T07:02:56.682Z,95338.25
2023-03-02T07:05:24.675Z,95333.09
2023-03-02T07:07:51.676Z,95333.66
2023-03-02T07:10:18.769Z,95331.78
2023-03-02T07:12:45.597Z,95334.13
2023-03-02T07:15:14.463Z,95326.91
2023-03-02T07:17:43.532Z,95340.31
2023-03-02T07:20:15.305Z,95339.50
2023-03-02T07:22:43.227Z,95332.72
2023-03-02T07:25:11.135Z,95328.31
2023-03-02T07:27:38.952Z,95323.72
2023-03-02T07:30:07.060Z,95332.94
2023-03-02T07:32:34.239Z,95332.81
2023-03-02T07:35:01.233Z,95333.75
2023-03-02T07:37:28.080Z,95337.84
2023-03-02T07:39:54.931Z,95339.22
2023-03-02T07:42:23.183Z,95339.94
2023-03-02T07:44:55.770Z,95334.00
2023-03-02T07:47:22.766Z,95334.06
2023-03-02T07:49:49.752Z,95340.34
2023-03-02T07:52:27.322Z,95342.00
2023-03-02T07:54:54.174Z,95346.19
2023-03-02T07:57:23.776Z,95337.78
2023-03-02T08:00:02.538Z,95337.69
2023-03-02T08:02:42.396Z,95336.94
2023-03-02T08:05:16.014Z,95330.31
2023-03-02T08:07:53.259Z,95292.47
2023-03-02T08:10:27.177Z,95327.38
2023-03-02T08:12:54.061Z,95330.75
2023-03-02T08:15:21.005Z,95338.09
2023-03-02T08:17:48.026Z,95327.81
2023-03-02T08:20:15.236Z,95329.56
2023-03-02T08:22:46.010Z,95324.56
2023-03-02T08:25:22.125Z,95319.66
2023-03-02T08:27:49.071Z,95316.16
2023-03-02T08:30:16.048Z,95320.81
2023-03-02T08:32:43.053Z,95319.53
2023-03-02T08:35:10.250Z,95321.38
2023-03-02T08:37:37.246Z,95321.00
2023-03-02T08:40:04.302Z,95324.97
2023-03-02T08:42:31.093Z,95319.94
2023-03-02T08:44:57.883Z,95325.19
2023-03-02T08:47:24.783Z,95308.03
2023-03-02T08:49:51.878Z,95311.44
2023-03-02T08:52:18.831Z,95317.94
2023-03-02T08:54:45.733Z,95319.59
2023-03-02T08:57:12.872Z,95325.06
2023-03-02T08:59:39.806Z,95311.41
2023-03-02T09:02:07.518Z,95308.25
2023-03-02T09:04:34.440Z,95318.03
2023-03-02T09:07:01.313Z,95310.06
2023-03-02T09:09:28.207Z,95308.41
2023-03-02T09:11:55.144Z,95311.13
2023-03-02T09:14:22.526Z,95309.00
2023-03-02T09:16:49.465Z,95299.88
2023-03-02T09:19:16.465Z,95303.00
2023-03-02T09:21:43.409Z,95317.34
2023-03-02T09:24:10.452Z,95313.22
2023-03-02T09:26:39.230Z,95309.56
2023-03-02T09:29:07.333Z,95304.88
2023-03-02T09:31:35.632Z,95309.50
2023-03-02T09:34:02.834Z,95298.69
2023-03-02T09:36:32.828Z,95299.97
2023-03-02T09:38:59.823Z,95298.84
2023-03-02T09:41:39.355Z,95301.63
2023-03-02T09:44:27.955Z,95303.13
2023-03-02T09:47:03.508Z,95301.75
2023-03-02T09:49:49.219Z,95292.25
2023-03-02T09:52:32.257Z,95292.25
2023-03-02T09:55:33.630Z,95305.81
2023-03-02T09:58:02.711Z,95303.88
2023-03-02T10:00:35.539Z,95307.38
2023-03-02T10:03:16.936Z,95307.81
2023-03-02T10:05:48.077Z,95301.19
2023-03-02T10:08:22.065Z,95297.91
2023-03-02T10:11:27.726Z,95301.03
2023-03-02T10:14:13.014Z,95300.09
2023-03-02T10:16:49.001Z,95301.75
2023-03-02T10:19:42.428Z,95310.66
2023-03-02T10:22:18.714Z,95305.50
2023-03-02T10:25:08.557Z,95301.59
2023-03-02T10:27:39.443Z,95299.38
2023-03-02T10:30:27.846Z,95287.41
2023-03-02T10:32:58.506Z,95298.44
2023-03-02T10:35:29.043Z,95305.72
2023-03-02T10:38:00.585Z,95295.94
2023-03-02T10:40:50.275Z,95296.06
2023-03-02T10:43:54.637Z,95299.47
2023-03-02T10:46:21.671Z,95285.75
2023-03-02T10:48:56.785Z,95301.09
2023-03-02T10:51:33.159Z,95285.94
2023-03-02T10:54:10.038Z,95295.94
2023-03-02T10:56:37.673Z,95281.34
2023-03-02T10:59:27.250Z,95287.97
2023-03-02T11:02:02.943Z,95277.94
2023-03-02T11:04:31.565Z,95291.69
2023-03-02T11:07:09.437Z,95280.03
2023-03-02T11:09:36.516Z,95269.47
2023-03-02T11:12:03.518Z,95257.81
2023-03-02T11:14:31.216Z,95271.13
2023-03-02T11:17:01.370Z,95265.03
2023-03-02T11:19:35.993Z,95262.88
2023-03-02T11:22:26.739Z,95263.56
2023-03-02T11:24:58.591Z,95258.41
2023-03-02T11:27:29.890Z,95252.44
2023-03-02T11:30:02.885Z,95258.41
2023-03-02T11:33:00.837Z,95253.25
2023-03-02T11:35:42.867Z,95242.44
2023-03-02T11:38:29.296Z,95248.13
2023-03-02T11:41:25.016Z,95245.97
2023-03-02T11:43:56.387Z,95241.28
2023-03-02T11:46:26.942Z,95238.47
2023-03-02T11:48:58.980Z,95241.44
2023-03-02T11:51:30.171Z,95248.25
2023-03-02T11:54:04.790Z,95232.28
2023-03-02T11:56:38.674Z,95239.59
2023-03-02T11:59:15.077Z,95228.22
2023-03-02T12:01:43.514Z,95242.84
2023-03-02T12:04:35.244Z,95246.13
2023-03-02T12:07:16.101Z,95233.91
2023-03-02T12:09:43.454Z,95250.69
2023-03-02T12:12:19.569Z,95256.34
2023-03-02T12:14:46.575Z,95250.09
2023-03-02T12:17:21.613Z,95249.84
2023-03-02T12:19:52.178Z,95241.06
2023-03-02T12:22:31.012Z,95238.47
2023-03-02T12:25:26.814Z,95227.94
2023-03-02T12:27:55.158Z,95230.13
2023-03-02T12:30:27.036Z,95225.78
2023-03-02T12:33:20.615Z,95239.84
2023-03-02T12:35:51.011Z,95226.06
2023-03-02T12:38:32.826Z,95231.06
2023-03-02T12:41:10.165Z,95230.69
2023-03-02T12:43:42.589Z,95220.94
2023-03-02T12:46:27.128Z,95224.75
2023-03-02T12:49:11.874Z,95235.03
2023-03-02T12:51:48.510Z,95241.50
2023-03-02T12:54:18.666Z,95227.69
2023-03-02T12:56:46.958Z,95215.41
2023-03-02T12:59:25.529Z,95219.03
2023-03-02T13:01:52.590Z,95209.00
2023-03-02T13:04:27.194Z,95202.09
2023-03-02T13:06:54.776Z,95206.56
2023-03-02T13:09:23.069Z,95212.41
2023-03-02T13:11:54.846Z,95210.38
2023-03-02T13:14:27.754Z,95193.72
2023-03-02T13:17:03.090Z,95199.94
2023-03-02T13:19:31.202Z,95197.09
2023-03-02T13:21:59.749Z,95187.75
2023-03-02T13:24:44.709Z,95190.31
2023-03-02T13:27:23.039Z,95187.09
2023-03-02T13:29:52.935Z,95186.66
2023-03-02T13:32:26.978Z,95181.25
2023-03-02T13:34:59.686Z,95185.03
2023-03-02T13:37:40.769Z,95166.63
2023-03-02T13:40:27.694Z,95162.69
2023-03-02T13:42:55.120Z,95176.78
2023-03-02T13:45:29.490Z,95171.63
2023-03-02T13:48:01.356Z,95161.47
2023-03-02T13:50:31.548Z,95164.19
2023-03-02T13:53:05.967Z,95158.34
2023-03-02T13:55:34.463Z,95159.72
2023-03-02T13:58:01.980Z,95161.22
2023-03-02T14:00:31.330Z,95165.81
2023-03-02T14:02:58.304Z,95151.84
2023-03-02T14:05:35.844Z,95149.00
2023-03-02T14:08:03.086Z,95158.91
2023-03-02T14:10:30.097Z,95148.59
2023-03-02T14:13:13.343Z,95152.28
2023-03-02T14:15:43.499Z,95146.31
2023-03-02T14:18:31.583Z,95152.28
2023-03-02T14:20:58.888Z,95155.66
2023-03-02T14:23:26.846Z,95150.78
2023-03-02T14:25:55.415Z,95144.28
2023-03-02T14:28:36.046Z,95143.72
2023-03-02T14:31:03.442Z,95139.41
2023-03-02T14:33:30.402Z,95151.31
2023-03-02T14:35:58.881Z,95139.25
2023-03-02T14:38:27.341Z,95146.44
2023-03-02T14:40:54.330Z,95140.63
2023-03-02T14:43:23.734Z,95144.28
2023-03-02T14:45:52.223Z,95157.28
2023-03-02T14:48:19.098Z,95149.16
2023-03-02T14:50:49.115Z,95148.88
2023-03-02T14:53:20.794Z,95148.19
2023-03-02T14:55:47.861Z,95151.06
2023-03-02T14:58:22.938Z,95147.25
2023-03-02T15:00:49.894Z,95153.19
2023-03-02T15:03:25.700Z,95152.25
2023-03-02T15:06:00.899Z,95158.34
2023-03-02T15:08:28.447Z,95153.50
2023-03-02T15:10:55.415Z,95144.56
2023-03-02T15:13:22.298Z,95148.06
2023-03-02T15:15:50.257Z,95145.34
2023-03-02T15:18:19.979Z,95155.09
2023-03-02T15:20:47.085Z,95154.69
2023-03-02T15:23:14.044Z,95161.06
2023-03-02T15:25:40.996Z,95148.41
2023-03-02T15:28:07.968Z,95158.81
2023-03-02T15:30:36.094Z,95161.25
2023-03-02T15:33:02.939Z,95158.69
2023-03-02T15:35:29.887Z,95162.44
2023-03-02T15:37:58.562Z,95156.34
2023-03-02T15:40:25.844Z,95163.09
2023-03-02T15:42:53.273Z,95169.31
2023-03-02T15:45:20.373Z,95162.28
2023-03-02T15:47:47.387Z,95172.69
2023-03-02T15:50:16.899Z,95162.66
2023-03-02T15:52:45.006Z,95178.06
2023-03-02T15:55:11.840Z,95166.28
2023-03-02T15:57:39.560Z,95181.16
2023-03-02T16:00:07.511Z,95180.63
2023-03-02T16:02:34.973Z,95173.81
2023-03-02T16:05:02.892Z,95188.66
2023-03-02T16:07:30.416Z,95183.38
2023-03-02T16:09:57.552Z,95193.94
2023-03-02T16:12:26.297Z,95200.16
2023-03-02T16:14:53.161Z,95194.44
2023-03-02T16:17:20.224Z,95200.28
2023-03-02T16:19:47.245Z,95201.22
2023-03-02T16:22:14.666Z,95192.81
2023-03-02T16:24:42.001Z,95187.25
2023-03-02T16:27:09.313Z,95192.38
2023-03-02T16:29:36.246Z,95209.16
2023-03-02T16:32:03.748Z,95193.97
2023-03-02T16:34:30.729Z,95199.91
2023-03-02T16:36:57.594Z,95209.25
2023-03-02T16:39:24.788Z,95206.25
2023-03-02T16:41:56.169Z,95207.75
2023-03-02T16:44:23.713Z,95205.56
2023-03-02T16:46:50.718Z,95196.03
2023-03-02T16:49:17.587Z,95220.88
2023-03-02T16:51:44.796Z,95220.34
2023-03-02T16:54:16.189Z,95215.44
2023-03-02T16:56:45.427Z,95216.19
2023-03-02T16:59:13.616Z,95206.69
2023-03-02T17:01:40.786Z,95199.00
2023-03-02T17:04:08.170Z,95215.56
2023-03-02T17:06:37.034Z,95221.16
2023-03-02T17:09:04.156Z,95218.19
2023-03-02T17:11:32.011Z,95216.91
2023-03-02T17:13:58.924Z,95212.13
2023-03-02T17:16:25.851Z,95206.81
2023-03-02T17:18:52.823Z,95216.38
2023-03-02T17:21:19.788Z,95211.97
2023-03-02T17:23:48.307Z,95216.16
2023-03-02T17:26:17.272Z,95210.16
2023-03-02T17:28:44.313Z,95219.59
2023-03-02T17:31:12.829Z,95235.16
2023-03-02T17:33:40.042Z,95224.47
2023-03-02T17:36:09.845Z,95227.47
2023-03-02T17:38:36.703Z,95222.97
2023-03-02T17:41:07.893Z,95236.22
2023-03-02T17:43:37.123Z,95210.75
2023-03-02T17:46:20.637Z,95232.19
2023-03-02T17:48:49.939Z,95233.00
2023-03-02T17:51:17.834Z,95233.00
2023-03-02T17:53:46.332Z,95225.06
2023-03-02T17:56:14.522Z,95229.97
2023-03-02T17:58:45.530Z,95221.81
2023-03-02T18:01:16.025Z,95220.41
2023-03-02T18:03:43.322Z,95230.56
2023-03-02T18:06:10.338Z,95225.31
2023-03-02T18:08:38.064Z,95210.53
2023-03-02T18:11:07.119Z,95225.66
2023-03-02T18:13:34.161Z,95219.03
2023-03-02T18:16:01.074Z,95222.53
2023-03-02T18:18:28.038Z,95225.22
2023-03-02T18:20:57.314Z,95220.44
2023-03-02T18:23:26.717Z,95217.88
2023-03-02T18:25:53.819Z,95223.81
2023-03-02T18:28:20.781Z,95221.38
2023-03-02T18:30:47.832Z,95213.22
2023-03-02T18:33:14.862Z,95207.78
2023-03-02T18:35:43.127Z,95212.91
2023-03-02T18:38:10.081Z,95206.16
2023-03-02T18:40:38.302Z,95209.88
2023-03-02T18:43:06.412Z,95205.78
2023-03-02T18:45:37.456Z,95217.78
2023-03-02T18:48:05.008Z,95213.84
2023-03-02T18:50:32.127Z,95213.13
2023-03-02T18:52:58.994Z,95210.56
2023-03-02T18:55:26.955Z,95208.38
2023-03-02T18:57:55.086Z,95222.13
2023-03-02T19:00:27.669Z,95208.84
2023-03-02T19:02:56.054Z,95213.38
2023-03-02T19:05:25.328Z,95219.09
2023-03-02T19:07:52.547Z,95210.00
2023-03-02T19:10:21.474Z,95213.50
2023-03-02T19:12:49.251Z,95205.59
2023-03-02T19:15:16.472Z,95206.97
2023-03-02T19:17:43.931Z,95218.84
